sensor_id;sensor_type;location;lat;lon;timestamp;P1;durP1;ratioP1;P2;durP2;ratioP2
30970;SDS011;17651;52.262;10.498;2023-01-08T15:41:08;3.25;;;2.50;;
30970;SDS011;17651;52.262;10.498;2023-01-08T15:43:19;2.80;;;2.15;;
30970;SDS011;17651;52.262;10.498;2023-01-08T15:45:30;2.90;;;2.42;;
30970;SDS011;17651;52.262;10.498;2023-01-08T15:47:42;1.90;;;1.65;;
30970;SDS011;17651;52.262;10.498;2023-01-08T15:49:53;3.80;;;2.10;;
30970;SDS011;17651;52.262;10.498;2023-01-08T15:52:04;1.75;;;1.65;;
30970;SDS011;17651;52.262;10.498;2023-01-08T15:54:15;1.95;;;1.60;;
30970;SDS011;17651;52.262;10.498;2023-01-08T15:56:26;2.30;;;2.10;;
30970;SDS011;17651;52.262;10.498;2023-01-08T15:58:37;2.42;;;1.73;;
30970;SDS011;17651;52.262;10.498;2023-01-08T16:00:48;1.77;;;1.67;;
30970;SDS011;17651;52.262;10.498;2023-01-08T16:03:02;1.55;;;1.45;;
30970;SDS011;17651;52.262;10.498;2023-01-08T16:05:21;2.30;;;1.65;;
30970;SDS011;17651;52.262;10.498;2023-01-08T16:07:32;1.58;;;1.48;;
30970;SDS011;17651;52.262;10.498;2023-01-08T16:09:43;2.17;;;1.90;;
30970;SDS011;17651;52.262;10.498;2023-01-08T16:11:54;1.88;;;1.70;;
30970;SDS011;17651;52.262;10.498;2023-01-08T16:14:05;2.10;;;1.90;;
30970;SDS011;17651;52.262;10.498;2023-01-08T16:16:16;1.90;;;1.80;;
30970;SDS011;17651;52.262;10.498;2023-01-08T16:18:29;3.25;;;1.88;;
30970;SDS011;17651;52.262;10.498;2023-01-08T16:20:40;2.50;;;2.15;;
30970;SDS011;17651;52.262;10.498;2023-01-08T16:22:51;3.95;;;2.22;;
30970;SDS011;17651;52.262;10.498;2023-01-08T16:25:04;4.00;;;2.50;;
30970;SDS011;17651;52.262;10.498;2023-01-08T16:27:15;2.97;;;2.33;;
30970;SDS011;17651;52.262;10.498;2023-01-08T16:29:26;2.10;;;1.90;;
30970;SDS011;17651;52.262;10.498;2023-01-08T16:31:37;2.67;;;2.17;;
30970;SDS011;17651;52.262;10.498;2023-01-08T16:33:48;2.28;;;1.85;;
30970;SDS011;17651;52.262;10.498;2023-01-08T16:36:00;2.42;;;2.22;;
30970;SDS011;17651;52.262;10.498;2023-01-08T16:38:12;2.20;;;2.00;;
30970;SDS011;17651;52.262;10.498;2023-01-08T16:40:23;1.98;;;1.70;;
30970;SDS011;17651;52.262;10.498;2023-01-08T16:42:34;2.67;;;1.77;;
30970;SDS011;17651;52.262;10.498;2023-01-08T16:44:45;2.38;;;1.90;;
30970;SDS011;17651;52.262;10.498;2023-01-08T16:46:57;2.05;;;1.85;;
30970;SDS011;17651;52.262;10.498;2023-01-08T16:49:10;4.60;;;3.00;;
30970;SDS011;17651;52.262;10.498;2023-01-08T16:51:21;2.30;;;2.10;;
30970;SDS011;17651;52.262;10.498;2023-01-08T16:53:34;3.17;;;2.88;;
30970;SDS011;17651;52.262;10.498;2023-01-08T16:55:45;2.92;;;2.70;;
30970;SDS011;17651;52.262;10.498;2023-01-08T16:57:56;4.97;;;3.15;;
30970;SDS011;17651;52.262;10.498;2023-01-08T17:00:07;2.97;;;2.67;;
30970;SDS011;17651;52.262;10.498;2023-01-08T17:02:19;4.45;;;2.88;;
30970;SDS011;17651;52.262;10.498;2023-01-08T17:04:30;3.10;;;2.80;;
30970;SDS011;17651;52.262;10.498;2023-01-08T17:06:42;2.92;;;2.63;;
30970;SDS011;17651;52.262;10.498;2023-01-08T17:08:53;2.92;;;2.42;;
30970;SDS011;17651;52.262;10.498;2023-01-08T17:11:14;3.85;;;2.70;;
30970;SDS011;17651;52.262;10.498;2023-01-08T17:13:25;2.60;;;2.38;;
30970;SDS011;17651;52.262;10.498;2023-01-08T17:15:37;5.93;;;3.78;;
30970;SDS011;17651;52.262;10.498;2023-01-08T17:17:49;3.80;;;2.88;;
30970;SDS011;17651;52.262;10.498;2023-01-08T17:20:00;3.33;;;3.03;;
30970;SDS011;17651;52.262;10.498;2023-01-08T17:22:11;3.00;;;2.75;;
30970;SDS011;17651;52.262;10.498;2023-01-08T17:24:22;7.43;;;5.80;;
